createdAt,value
2019-04-11T00:00:36.077Z,22.17
2019-04-11T00:01:12.114Z,19.87
2019-04-11T00:01:48.671Z,22.73
2019-04-11T00:02:20.632Z,23.67
2019-04-11T00:02:53.157Z,22.33
2019-04-11T00:03:25.123Z,25.33
2019-04-11T00:03:56.404Z,28.10
2019-04-11T00:04:28.237Z,33.03
2019-04-11T00:04:59.580Z,34.13
2019-04-11T00:05:30.875Z,36.27
2019-04-11T00:06:03.290Z,36.63
2019-04-11T00:06:35.710Z,50.40
2019-04-11T00:07:07.861Z,47.83
2019-04-11T00:07:39.211Z,49.37
2019-04-11T00:08:10.451Z,44.07
2019-04-11T00:08:41.965Z,49.10
2019-04-11T00:09:15.148Z,52.90
2019-04-11T00:09:47.822Z,46.30
2019-04-11T00:10:20.701Z,58.17
2019-04-11T00:10:51.974Z,49.07
2019-04-11T00:11:23.919Z,64.00
2019-04-11T00:11:55.157Z,59.43
2019-04-11T00:12:27.398Z,65.60
2019-04-11T00:12:59.058Z,65.53
2019-04-11T00:13:33.403Z,71.13
2019-04-11T00:14:03.440Z,62.60
2019-04-11T00:14:35.794Z,61.67
2019-04-11T00:15:07.059Z,57.10
2019-04-11T00:15:38.265Z,63.80
2019-04-11T00:16:09.424Z,67.70
2019-04-11T00:16:41.517Z,79.03
2019-04-11T00:17:13.836Z,76.43
2019-04-11T00:17:45.993Z,82.90
2019-04-11T00:18:17.214Z,78.50
2019-04-11T00:18:49.240Z,87.10
2019-04-11T00:19:21.154Z,82.47
2019-04-11T00:19:52.379Z,73.50
2019-04-11T00:20:24.229Z,56.40
2019-04-11T00:20:56.652Z,59.10
2019-04-11T00:21:28.845Z,82.00
2019-04-11T00:22:01.488Z,52.27
2019-04-11T00:22:33.308Z,43.20
2019-04-11T00:23:04.518Z,38.83
2019-04-11T00:23:36.491Z,41.80
2019-04-11T00:24:07.830Z,35.10
2019-04-11T00:24:39.111Z,26.57
2019-04-11T00:25:11.428Z,26.37
2019-04-11T00:25:42.725Z,19.07
2019-04-11T00:26:13.927Z,23.17
2019-04-11T00:26:45.184Z,16.30
2019-04-11T00:27:17.123Z,19.17
2019-04-11T00:27:48.928Z,16.03
2019-04-11T00:28:21.494Z,15.23
2019-04-11T00:28:52.839Z,13.97
2019-04-11T00:29:26.042Z,15.10
2019-04-11T00:29:57.317Z,13.70
2019-04-11T00:30:28.535Z,13.87
2019-04-11T00:31:00.751Z,15.80
2019-04-11T00:31:32.697Z,12.23
2019-04-11T00:32:06.510Z,13.27
2019-04-11T00:32:37.987Z,13.73
2019-04-11T00:33:09.813Z,14.40
2019-04-11T00:33:41.127Z,15.33
2019-04-11T00:34:13.384Z,14.57
2019-04-11T00:34:44.890Z,16.00
2019-04-11T00:35:16.157Z,17.10
2019-04-11T00:35:48.058Z,15.23
2019-04-11T00:36:20.038Z,17.17
2019-04-11T00:36:51.295Z,21.90
2019-04-11T00:37:23.205Z,20.27
2019-04-11T00:37:54.478Z,22.53
2019-04-11T00:38:25.753Z,16.47
2019-04-11T00:38:57.323Z,16.07
2019-04-11T00:39:28.506Z,15.73
2019-04-11T00:39:59.763Z,20.73
2019-04-11T00:40:31.183Z,14.80
2019-04-11T00:41:03.749Z,16.17
2019-04-11T00:41:35.044Z,18.37
2019-04-11T00:42:06.290Z,15.33
2019-04-11T00:42:37.462Z,14.83
2019-04-11T00:43:09.418Z,16.83
2019-04-11T00:43:43.468Z,12.60
2019-04-11T00:44:14.665Z,13.53
2019-04-11T00:44:48.009Z,16.60
2019-04-11T00:45:19.290Z,16.03
2019-04-11T00:45:50.486Z,15.07
2019-04-11T00:46:22.444Z,15.27
2019-04-11T00:46:53.759Z,15.43
2019-04-11T00:47:24.947Z,15.87
2019-04-11T00:47:56.131Z,16.63
2019-04-11T00:48:28.003Z,16.17
2019-04-11T00:48:59.828Z,17.80
2019-04-11T00:49:31.063Z,13.40
2019-04-11T00:50:05.543Z,14.37
2019-04-11T00:50:37.248Z,14.20
2019-04-11T00:51:09.720Z,14.87
2019-04-11T00:51:41.007Z,15.10
2019-04-11T00:52:12.207Z,18.53
2019-04-11T00:52:43.435Z,11.83
2019-04-11T00:53:16.005Z,10.83
2019-04-11T00:53:47.237Z,11.43
2019-04-11T00:54:18.539Z,12.40
2019-04-11T00:54:49.733Z,17.37
2019-04-11T00:55:21.738Z,12.67
2019-04-11T00:55:53.619Z,11.37
2019-04-11T00:56:26.175Z,14.03
2019-04-11T00:56:57.511Z,15.57
2019-04-11T00:57:28.760Z,11.30
2019-04-11T00:58:01.289Z,13.50
2019-04-11T00:58:33.856Z,11.70
2019-04-11T00:59:05.853Z,13.30
2019-04-11T00:59:38.385Z,13.33
2019-04-11T01:00:11.020Z,14.07
2019-04-11T01:00:42.987Z,12.43
2019-04-11T01:01:14.189Z,11.17
2019-04-11T01:01:45.426Z,11.73
2019-04-11T01:02:17.681Z,11.60
2019-04-11T01:02:49.603Z,11.63
2019-04-11T01:03:22.075Z,15.30
2019-04-11T01:03:53.679Z,11.67
2019-04-11T01:04:25.537Z,12.37
2019-04-11T01:04:57.113Z,12.27
2019-04-11T01:05:29.709Z,13.17
2019-04-11T01:06:01.581Z,12.37
2019-04-11T01:06:32.830Z,13.17
2019-04-11T01:07:04.752Z,14.10
2019-04-11T01:07:36.154Z,11.37
2019-04-11T01:08:07.382Z,15.00
2019-04-11T01:08:38.538Z,13.97
2019-04-11T01:09:10.992Z,12.43
2019-04-11T01:09:42.347Z,16.23
2019-04-11T01:10:13.990Z,19.13
2019-04-11T01:10:45.626Z,16.00
2019-04-11T01:11:16.935Z,13.60
2019-04-11T01:11:48.081Z,20.40
2019-04-11T01:12:19.291Z,19.33
2019-04-11T01:12:51.305Z,16.53
2019-04-11T01:13:23.750Z,15.50
2019-04-11T01:13:55.748Z,17.50
2019-04-11T01:14:27.913Z,16.47
2019-04-11T01:14:59.465Z,15.83
2019-04-11T01:15:31.365Z,21.37
2019-04-11T01:16:05.047Z,18.57
2019-04-11T01:16:45.102Z,18.17
2019-04-11T01:17:16.989Z,18.33
2019-04-11T01:17:48.282Z,14.77
2019-04-11T01:18:20.701Z,14.07
2019-04-11T01:18:52.086Z,13.27
2019-04-11T01:19:24.674Z,14.97
2019-04-11T01:19:57.264Z,12.80
2019-04-11T01:20:29.337Z,11.37
2019-04-11T01:21:02.052Z,11.53
2019-04-11T01:21:33.455Z,10.60
2019-04-11T01:22:05.649Z,11.43
2019-04-11T01:22:38.292Z,12.70
2019-04-11T01:23:10.962Z,11.63
2019-04-11T01:23:42.924Z,13.80
2019-04-11T01:24:15.531Z,12.27
2019-04-11T01:24:48.102Z,12.07
2019-04-11T01:25:20.128Z,11.83
2019-04-11T01:25:51.454Z,12.40
2019-04-11T01:26:23.316Z,13.03
2019-04-11T01:26:54.559Z,11.23
2019-04-11T01:27:25.780Z,13.33
2019-04-11T01:27:56.936Z,13.70
2019-04-11T01:28:28.903Z,12.67
2019-04-11T01:29:00.913Z,12.73
2019-04-11T01:29:32.217Z,12.80
2019-04-11T01:30:06.125Z,11.40
2019-04-11T01:30:39.406Z,11.20
2019-04-11T01:31:13.518Z,12.40
2019-04-11T01:31:46.759Z,13.30
2019-04-11T01:32:18.069Z,13.17
2019-04-11T01:32:49.333Z,12.23
2019-04-11T01:33:20.691Z,14.33
2019-04-11T01:33:52.299Z,12.67
2019-04-11T01:34:24.461Z,12.93
2019-04-11T01:34:55.765Z,12.73
2019-04-11T01:35:26.919Z,10.73
2019-04-11T01:35:58.165Z,14.53
2019-04-11T01:36:29.349Z,11.90
2019-04-11T01:37:01.618Z,14.40
2019-04-11T01:37:33.492Z,11.63
2019-04-11T01:38:04.800Z,10.30
2019-04-11T01:38:38.714Z,10.93
2019-04-11T01:39:21.038Z,12.47
2019-04-11T01:39:57.306Z,11.23
2019-04-11T01:40:29.781Z,10.90
2019-04-11T01:41:02.350Z,14.33
2019-04-11T01:41:34.333Z,11.80
2019-04-11T01:42:05.610Z,11.93
2019-04-11T01:42:37.600Z,13.80
2019-04-11T01:43:09.166Z,11.47
2019-04-11T01:43:52.128Z,15.53
2019-04-11T01:44:14.499Z,12.30
2019-04-11T01:44:46.045Z,13.97
2019-04-11T01:45:21.135Z,14.67
2019-04-11T01:45:52.516Z,12.37
2019-04-11T01:46:24.398Z,14.83
2019-04-11T01:46:56.274Z,14.57
2019-04-11T01:47:29.363Z,13.63
2019-04-11T01:48:01.556Z,16.20
2019-04-11T01:48:43.884Z,16.43
2019-04-11T01:49:19.804Z,13.20
2019-04-11T01:49:51.043Z,17.83
2019-04-11T01:50:25.151Z,18.87
2019-04-11T01:50:57.075Z,17.10
2019-04-11T01:51:28.359Z,20.93
2019-04-11T01:52:00.167Z,17.37
2019-04-11T01:52:31.485Z,20.43
2019-04-11T01:53:02.713Z,20.37
2019-04-11T01:53:35.145Z,17.17
2019-04-11T01:54:07.700Z,18.40
2019-04-11T01:54:39.587Z,21.70
2019-04-11T01:55:10.821Z,17.80
2019-04-11T01:55:42.907Z,18.37
2019-04-11T01:56:14.842Z,15.43
2019-04-11T01:56:46.106Z,19.10
2019-04-11T01:57:17.990Z,15.47
2019-04-11T01:57:49.889Z,15.63
2019-04-11T01:58:21.163Z,15.90
2019-04-11T01:58:53.089Z,16.00
2019-04-11T01:59:24.444Z,16.00
2019-04-11T01:59:55.698Z,15.60
2019-04-11T02:00:34.690Z,15.40
2019-04-11T02:01:15.326Z,15.20
2019-04-11T02:01:49.364Z,16.67
2019-04-11T02:02:21.222Z,18.93
2019-04-11T02:02:57.068Z,18.10
2019-04-11T02:03:47.614Z,17.57
2019-04-11T02:04:19.475Z,14.70
2019-04-11T02:04:54.371Z,15.17
2019-04-11T02:05:27.570Z,15.93
2019-04-11T02:05:59.163Z,14.60
2019-04-11T02:06:30.566Z,14.20
2019-04-11T02:07:02.508Z,15.07
2019-04-11T02:07:34.348Z,12.13
2019-04-11T02:08:05.618Z,13.23
2019-04-11T02:08:37.582Z,14.23
2019-04-11T02:09:11.626Z,13.37
2019-04-11T02:09:44.138Z,12.27
2019-04-11T02:10:15.519Z,13.47
2019-04-11T02:10:46.769Z,14.17
2019-04-11T02:11:18.238Z,14.23
2019-04-11T02:11:49.976Z,16.27
2019-04-11T02:12:22.411Z,15.80
2019-04-11T02:12:55.290Z,16.83
2019-04-11T02:13:26.482Z,18.30
2019-04-11T02:14:09.829Z,16.73
2019-04-11T02:14:31.257Z,17.90
2019-04-11T02:15:06.111Z,14.87
2019-04-11T02:15:37.345Z,15.27
2019-04-11T02:16:08.998Z,16.37
2019-04-11T02:16:41.224Z,16.20
2019-04-11T02:17:12.583Z,17.97
2019-04-11T02:17:43.761Z,13.93
2019-04-11T02:18:15.082Z,12.83
2019-04-11T02:18:46.314Z,11.60
2019-04-11T02:19:18.295Z,12.90
2019-04-11T02:19:50.280Z,11.67
2019-04-11T02:20:21.596Z,11.67
2019-04-11T02:20:54.217Z,13.27
2019-04-11T02:21:25.538Z,12.70
2019-04-11T02:21:58.589Z,10.43
2019-04-11T02:22:38.359Z,9.97
2019-04-11T02:23:11.450Z,11.27
2019-04-11T02:23:47.636Z,10.33
2019-04-11T02:24:30.070Z,10.20
2019-04-11T02:25:15.033Z,9.83
2019-04-11T02:25:49.025Z,11.10
2019-04-11T02:26:31.476Z,14.17
2019-04-11T02:27:08.497Z,12.53
2019-04-11T02:27:40.803Z,11.20
2019-04-11T02:28:14.745Z,9.20
2019-04-11T02:28:46.709Z,10.13
2019-04-11T02:29:17.991Z,10.73
2019-04-11T02:29:49.177Z,11.90
2019-04-11T02:30:22.671Z,12.43
2019-04-11T02:30:56.258Z,11.87
2019-04-11T02:31:28.258Z,14.80
2019-04-11T02:32:04.766Z,13.73
2019-04-11T02:32:34.417Z,12.93
2019-04-11T02:33:07.243Z,13.77
2019-04-11T02:33:39.154Z,14.07
2019-04-11T02:34:11.392Z,14.37
2019-04-11T02:34:43.911Z,14.07
2019-04-11T02:35:15.542Z,12.97
2019-04-11T02:35:49.348Z,14.97
2019-04-11T02:36:21.769Z,14.63
2019-04-11T02:36:53.768Z,16.77
2019-04-11T02:37:26.437Z,16.80
2019-04-11T02:37:59.255Z,14.83
2019-04-11T02:38:32.443Z,14.50
2019-04-11T02:39:12.190Z,12.93
2019-04-11T02:39:40.929Z,14.13
2019-04-11T02:40:13.518Z,12.07
2019-04-11T02:40:45.506Z,12.43
2019-04-11T02:41:18.927Z,11.70
2019-04-11T02:41:50.787Z,11.63
2019-04-11T02:42:23.377Z,12.03
2019-04-11T02:42:54.947Z,9.27
2019-04-11T02:43:26.197Z,10.80
2019-04-11T02:43:57.987Z,10.10
2019-04-11T02:44:49.593Z,11.50
2019-04-11T02:45:19.781Z,8.47
2019-04-11T02:45:50.892Z,10.30
2019-04-11T02:46:22.987Z,10.03
2019-04-11T02:46:54.199Z,9.83
2019-04-11T02:47:24.578Z,9.97
2019-04-11T02:47:55.353Z,10.23
2019-04-11T02:48:26.735Z,10.83
2019-04-11T02:48:59.388Z,11.37
2019-04-11T02:49:32.916Z,11.80
2019-04-11T02:50:05.807Z,13.40
2019-04-11T02:50:38.868Z,13.23
2019-04-11T02:51:12.262Z,15.53
2019-04-11T02:51:44.960Z,13.57
2019-04-11T02:52:17.581Z,15.10
2019-04-11T02:52:49.833Z,18.97
2019-04-11T02:53:23.603Z,14.03
2019-04-11T02:53:56.745Z,13.07
2019-04-11T02:54:28.341Z,13.00
2019-04-11T02:55:00.796Z,12.20
2019-04-11T02:55:33.494Z,12.03
2019-04-11T02:56:06.255Z,12.70
2019-04-11T02:56:37.924Z,10.63
2019-04-11T02:57:09.975Z,16.23
2019-04-11T02:57:42.691Z,12.37
2019-04-11T02:58:14.580Z,13.27
2019-04-11T02:58:46.444Z,12.63
2019-04-11T02:59:19.602Z,12.43
2019-04-11T02:59:51.233Z,12.60
2019-04-11T03:00:24.273Z,10.03
2019-04-11T03:00:58.938Z,9.87
2019-04-11T03:01:28.715Z,11.57
2019-04-11T03:02:00.489Z,13.80
2019-04-11T03:02:32.781Z,10.93
2019-04-11T03:03:05.666Z,9.40
2019-04-11T03:03:39.060Z,9.20
2019-04-11T03:04:10.621Z,10.37
2019-04-11T03:04:43.716Z,9.13
2019-04-11T03:05:16.264Z,9.53
2019-04-11T03:05:47.623Z,10.20
2019-04-11T03:06:19.384Z,8.60
2019-04-11T03:06:51.989Z,9.90
2019-04-11T03:07:24.761Z,11.63
2019-04-11T03:07:58.265Z,11.07
2019-04-11T03:08:31.859Z,10.33
2019-04-11T03:09:06.823Z,9.47
2019-04-11T03:09:39.332Z,10.00
2019-04-11T03:10:12.309Z,10.73
2019-04-11T03:10:45.457Z,9.20
2019-04-11T03:11:18.967Z,8.23
2019-04-11T03:11:51.502Z,9.93
2019-04-11T03:12:24.005Z,9.10
2019-04-11T03:12:56.747Z,10.70
2019-04-11T03:13:29.545Z,11.27
2019-04-11T03:14:03.275Z,11.07
2019-04-11T03:14:54.417Z,11.90
2019-04-11T03:15:25.649Z,10.70
2019-04-11T03:15:57.319Z,12.47
2019-04-11T03:16:29.808Z,12.57
2019-04-11T03:16:57.300Z,11.33
2019-04-11T03:17:26.421Z,10.80
2019-04-11T03:17:57.635Z,10.47
2019-04-11T03:18:49.436Z,10.10
2019-04-11T03:19:17.994Z,9.13
2019-04-11T03:19:46.842Z,11.37
2019-04-11T03:20:18.649Z,11.80
2019-04-11T03:20:47.335Z,9.53
2019-04-11T03:21:16.386Z,11.73
2019-04-11T03:21:46.922Z,9.83
2019-04-11T03:22:18.317Z,10.10
2019-04-11T03:22:56.983Z,10.40
2019-04-11T03:23:23.527Z,12.30
2019-04-11T03:23:56.227Z,10.50
2019-04-11T03:24:30.457Z,11.50
2019-04-11T03:25:02.926Z,12.30
2019-04-11T03:25:34.055Z,16.33
2019-04-11T03:26:07.318Z,13.30
2019-04-11T03:26:38.463Z,12.00
2019-04-11T03:27:11.432Z,11.87
2019-04-11T03:27:43.291Z,12.87
2019-04-11T03:28:21.108Z,12.50
2019-04-11T03:29:04.161Z,14.70
2019-04-11T03:29:37.751Z,15.97
2019-04-11T03:30:14.509Z,19.57
2019-04-11T03:31:03.866Z,21.17
2019-04-11T03:31:57.382Z,20.90
2019-04-11T03:32:34.452Z,21.40
2019-04-11T03:33:25.473Z,23.10
2019-04-11T03:34:51.886Z,21.00
2019-04-11T03:35:20.855Z,19.90
2019-04-11T03:35:59.676Z,22.97
2019-04-11T03:37:19.239Z,27.43
2019-04-11T03:37:47.777Z,28.10
2019-04-11T03:38:18.949Z,28.63
2019-04-11T03:38:48.227Z,30.63
2019-04-11T03:39:21.822Z,23.17
2019-04-11T03:39:56.974Z,22.33
2019-04-11T03:40:27.779Z,22.37
2019-04-11T03:40:57.711Z,26.57
2019-04-11T03:41:26.921Z,24.40
2019-04-11T03:42:07.433Z,29.50
2019-04-11T03:42:38.298Z,27.87
2019-04-11T03:43:08.895Z,26.20
2019-04-11T03:43:39.815Z,26.30
2019-04-11T03:44:13.482Z,26.10
2019-04-11T03:44:41.442Z,27.53
2019-04-11T03:45:32.869Z,21.73
2019-04-11T03:45:58.964Z,21.10
2019-04-11T03:46:32.627Z,23.03
2019-04-11T03:47:06.405Z,22.77
2019-04-11T03:47:35.980Z,22.40
2019-04-11T03:48:10.847Z,20.07
2019-04-11T03:48:40.779Z,23.60
2019-04-11T03:49:12.712Z,25.17
2019-04-11T03:49:43.244Z,24.77
2019-04-11T03:50:12.678Z,29.17
2019-04-11T03:50:42.259Z,28.40
2019-04-11T03:51:14.849Z,29.83
2019-04-11T03:51:48.024Z,27.30
2019-04-11T03:52:19.891Z,20.90
2019-04-11T03:52:51.941Z,27.13
2019-04-11T03:53:29.100Z,23.13
2019-04-11T03:53:59.183Z,17.10
2019-04-11T03:54:31.870Z,15.70
2019-04-11T03:55:06.768Z,15.77
2019-04-11T03:55:38.952Z,17.43
2019-04-11T03:56:12.118Z,23.97
2019-04-11T03:56:45.569Z,21.43
2019-04-11T03:57:17.475Z,16.90
2019-04-11T03:57:49.273Z,17.13
2019-04-11T03:58:23.725Z,18.67
2019-04-11T03:58:55.477Z,19.43
2019-04-11T03:59:28.879Z,21.13
2019-04-11T04:00:01.031Z,17.77
2019-04-11T04:00:37.291Z,18.77
2019-04-11T04:01:10.945Z,17.73
2019-04-11T04:01:42.435Z,19.80
2019-04-11T04:02:15.495Z,14.80
2019-04-11T04:02:48.846Z,19.07
2019-04-11T04:03:22.340Z,14.30
2019-04-11T04:03:55.418Z,14.00
2019-04-11T04:04:28.441Z,10.37
2019-04-11T04:05:01.338Z,10.57
2019-04-11T04:05:36.279Z,10.13
2019-04-11T04:06:06.940Z,9.70
2019-04-11T04:06:41.333Z,13.23
2019-04-11T04:07:14.911Z,9.77
2019-04-11T04:07:46.502Z,10.87
2019-04-11T04:08:18.111Z,10.63
2019-04-11T04:08:50.846Z,9.83
2019-04-11T04:09:24.059Z,11.87
2019-04-11T04:09:55.685Z,9.77
2019-04-11T04:10:27.892Z,11.10
2019-04-11T04:11:04.076Z,12.33
2019-04-11T04:11:38.392Z,11.27
2019-04-11T04:12:11.456Z,12.40
2019-04-11T04:12:43.419Z,15.00
2019-04-11T04:13:18.911Z,12.43
2019-04-11T04:13:59.299Z,11.83
2019-04-11T04:14:39.235Z,11.67
2019-04-11T04:15:23.783Z,12.73
2019-04-11T04:15:59.752Z,12.30
2019-04-11T04:16:45.223Z,12.13
2019-04-11T04:17:24.052Z,10.23
2019-04-11T04:17:59.746Z,10.03
2019-04-11T04:18:37.956Z,10.33
2019-04-11T04:19:30.191Z,9.63
2019-04-11T04:20:06.731Z,13.00
2019-04-11T04:20:39.490Z,11.27
2019-04-11T04:21:15.431Z,10.50
2019-04-11T04:21:57.695Z,8.60
2019-04-11T04:22:31.523Z,9.87
2019-04-11T04:23:05.816Z,8.37
2019-04-11T04:23:40.946Z,12.60
2019-04-11T04:24:34.174Z,11.63
2019-04-11T04:25:04.275Z,9.63
2019-04-11T04:25:36.769Z,10.17
2019-04-11T04:26:10.603Z,12.43
2019-04-11T04:26:43.048Z,11.67
2019-04-11T04:27:15.398Z,12.67
2019-04-11T04:27:46.955Z,12.77
2019-04-11T04:28:19.158Z,13.60
2019-04-11T04:28:51.321Z,12.17
2019-04-11T04:29:25.119Z,10.63
2019-04-11T04:29:58.449Z,14.03
2019-04-11T04:30:29.886Z,18.50
2019-04-11T04:31:02.095Z,11.00
2019-04-11T04:31:35.055Z,11.87
2019-04-11T04:32:08.192Z,17.03
2019-04-11T04:32:40.543Z,12.07
2019-04-11T04:33:14.444Z,12.70
2019-04-11T04:33:48.061Z,11.27
2019-04-11T04:34:19.684Z,14.23
2019-04-11T04:34:53.116Z,15.57
2019-04-11T04:35:26.141Z,12.90
2019-04-11T04:35:58.141Z,12.00
2019-04-11T04:36:32.805Z,12.87
2019-04-11T04:37:05.892Z,13.87
2019-04-11T04:37:38.773Z,14.70
2019-04-11T04:38:11.402Z,14.00
2019-04-11T04:38:44.553Z,13.80
2019-04-11T04:39:17.368Z,14.37
2019-04-11T04:39:55.305Z,17.70
2019-04-11T04:40:42.501Z,18.50
2019-04-11T04:41:09.932Z,16.00
2019-04-11T04:41:39.263Z,18.33
2019-04-11T04:42:11.409Z,19.77
2019-04-11T04:42:44.467Z,20.63
2019-04-11T04:43:11.875Z,21.70
2019-04-11T04:43:44.361Z,19.67
2019-04-11T04:44:16.981Z,22.10
2019-04-11T04:44:50.811Z,22.67
2019-04-11T04:45:23.896Z,22.23
2019-04-11T04:46:12.163Z,20.50
2019-04-11T04:46:45.595Z,23.60
2019-04-11T04:47:13.605Z,23.60
2019-04-11T04:47:42.214Z,22.33
2019-04-11T04:48:11.813Z,24.13
2019-04-11T04:48:43.334Z,21.63
2019-04-11T04:49:15.410Z,24.57
2019-04-11T04:49:48.221Z,33.60
2019-04-11T04:50:20.195Z,23.27
2019-04-11T04:50:54.399Z,21.90
2019-04-11T04:51:26.631Z,22.00
2019-04-11T04:51:59.429Z,19.67
2019-04-11T04:52:32.651Z,24.20
2019-04-11T04:53:05.142Z,22.43
2019-04-11T04:53:36.565Z,24.17
2019-04-11T04:54:08.096Z,21.10
2019-04-11T04:54:41.043Z,21.93
2019-04-11T04:55:12.910Z,21.33
2019-04-11T04:55:45.726Z,25.30
2019-04-11T04:56:23.855Z,21.27
2019-04-11T04:56:52.265Z,25.83
2019-04-11T04:57:24.418Z,28.87
2019-04-11T04:57:57.581Z,28.23
2019-04-11T04:58:29.369Z,28.40
2019-04-11T04:59:02.634Z,32.43
2019-04-11T04:59:33.999Z,28.77
2019-04-11T05:00:07.058Z,32.03
2019-04-11T05:00:39.705Z,32.83
2019-04-11T05:01:12.688Z,33.17
2019-04-11T05:01:45.734Z,33.63
2019-04-11T05:02:17.769Z,27.10
2019-04-11T05:02:50.343Z,25.07
2019-04-11T05:03:22.229Z,31.60
2019-04-11T05:03:54.085Z,28.97
2019-04-11T05:04:27.529Z,34.30
2019-04-11T05:04:59.348Z,27.37
2019-04-11T05:05:33.706Z,28.07
2019-04-11T05:06:05.362Z,32.10
2019-04-11T05:06:37.312Z,26.53
2019-04-11T05:07:11.623Z,25.27
2019-04-11T05:07:46.241Z,25.60
2019-04-11T05:08:16.586Z,28.83
2019-04-11T05:08:49.296Z,29.50
2019-04-11T05:09:21.373Z,26.57
2019-04-11T05:09:54.378Z,27.77
2019-04-11T05:10:26.388Z,22.17
2019-04-11T05:10:57.934Z,18.30
2019-04-11T05:11:30.516Z,16.43
2019-04-11T05:12:03.451Z,17.67
2019-04-11T05:12:36.469Z,16.37
2019-04-11T05:13:07.980Z,15.93
2019-04-11T05:13:42.077Z,15.03
2019-04-11T05:14:14.617Z,14.83
2019-04-11T05:14:47.585Z,12.70
2019-04-11T05:15:20.562Z,11.47
2019-04-11T05:16:04.325Z,12.40
2019-04-11T05:16:25.170Z,13.57
2019-04-11T05:16:56.324Z,12.60
2019-04-11T05:17:28.789Z,12.07
2019-04-11T05:18:01.841Z,15.50
2019-04-11T05:18:34.250Z,10.20
2019-04-11T05:19:06.520Z,10.50
2019-04-11T05:19:38.390Z,12.80
2019-04-11T05:20:09.562Z,12.63
2019-04-11T05:20:40.783Z,10.27
2019-04-11T05:21:12.866Z,13.03
2019-04-11T05:21:44.130Z,16.00
2019-04-11T05:22:15.329Z,12.87
2019-04-11T05:22:47.496Z,14.63
2019-04-11T05:23:18.654Z,13.83
2019-04-11T05:23:50.062Z,13.73
2019-04-11T05:24:21.346Z,10.37
2019-04-11T05:24:54.209Z,14.20
2019-04-11T05:25:26.540Z,11.67
2019-04-11T05:25:57.795Z,11.47
2019-04-11T05:26:29.011Z,9.70
2019-04-11T05:27:00.165Z,16.87
2019-04-11T05:27:31.509Z,10.97
2019-04-11T05:28:02.715Z,10.87
2019-04-11T05:28:35.226Z,12.77
2019-04-11T05:29:06.918Z,12.53
2019-04-11T05:29:38.155Z,16.50
2019-04-11T05:30:09.536Z,16.87
2019-04-11T05:30:41.844Z,15.40
2019-04-11T05:31:14.319Z,13.27
2019-04-11T05:31:45.647Z,13.63
2019-04-11T05:32:16.812Z,16.10
2019-04-11T05:32:49.241Z,15.83
2019-04-11T05:33:21.253Z,13.57
2019-04-11T05:33:53.551Z,15.40
2019-04-11T05:34:25.821Z,14.47
2019-04-11T05:34:57.134Z,15.83
2019-04-11T05:35:28.294Z,17.43
2019-04-11T05:36:00.506Z,22.33
2019-04-11T05:36:32.341Z,21.07
2019-04-11T05:37:03.961Z,21.13
2019-04-11T05:37:36.186Z,20.13
2019-04-11T05:38:08.360Z,20.77
2019-04-11T05:38:39.570Z,18.27
2019-04-11T05:39:10.787Z,14.83
2019-04-11T05:39:42.443Z,18.13
2019-04-11T05:40:14.810Z,21.77
2019-04-11T05:40:46.184Z,16.07
2019-04-11T05:41:20.100Z,14.53
2019-04-11T05:41:51.390Z,12.77
2019-04-11T05:42:25.255Z,13.37
2019-04-11T05:42:55.814Z,16.17
2019-04-11T05:43:31.381Z,15.00
2019-04-11T05:44:03.137Z,16.80
2019-04-11T05:44:37.394Z,19.87
2019-04-11T05:45:11.661Z,17.90
2019-04-11T05:45:40.158Z,15.93
2019-04-11T05:46:28.587Z,15.97
2019-04-11T05:46:53.244Z,18.50
2019-04-11T05:47:18.870Z,24.33
2019-04-11T05:47:53.839Z,27.53
2019-04-11T05:48:43.007Z,29.27
2019-04-11T05:49:21.182Z,32.50
2019-04-11T05:50:06.494Z,31.57
2019-04-11T05:50:36.165Z,30.30
2019-04-11T05:51:07.458Z,26.97
2019-04-11T05:51:41.652Z,26.67
2019-04-11T05:52:12.278Z,25.23
2019-04-11T05:52:44.174Z,22.87
2019-04-11T05:53:15.818Z,24.10
2019-04-11T05:53:49.707Z,23.33
2019-04-11T05:54:20.430Z,22.77
2019-04-11T05:54:54.357Z,22.23
2019-04-11T05:55:27.923Z,27.07
2019-04-11T05:56:04.533Z,23.03
2019-04-11T05:56:35.703Z,25.93
2019-04-11T05:57:07.124Z,30.63
2019-04-11T05:57:41.375Z,29.07
2019-04-11T05:58:15.666Z,38.40
2019-04-11T05:58:47.733Z,32.33
2019-04-11T05:59:24.062Z,26.17
2019-04-11T05:59:56.590Z,26.73
2019-04-11T06:00:30.861Z,22.77
2019-04-11T06:01:05.353Z,22.60
2019-04-11T06:01:42.497Z,18.67
2019-04-11T06:02:19.762Z,17.30
2019-04-11T06:02:53.333Z,19.33
2019-04-11T06:03:25.968Z,21.00
2019-04-11T06:04:02.117Z,21.83
2019-04-11T06:04:36.339Z,24.97
2019-04-11T06:05:15.635Z,26.40
2019-04-11T06:05:52.088Z,22.80
2019-04-11T06:06:25.294Z,24.13
2019-04-11T06:06:59.934Z,26.10
2019-04-11T06:07:33.224Z,28.50
2019-04-11T06:08:06.577Z,25.67
2019-04-11T06:08:38.213Z,29.90
2019-04-11T06:09:13.332Z,32.43
2019-04-11T06:09:46.500Z,28.73
2019-04-11T06:10:22.521Z,28.60
2019-04-11T06:11:06.329Z,25.47
2019-04-11T06:11:57.988Z,22.23
2019-04-11T06:12:41.342Z,22.07
2019-04-11T06:13:18.570Z,24.90
2019-04-11T06:13:50.938Z,21.33
2019-04-11T06:14:25.008Z,29.97
2019-04-11T06:14:58.267Z,23.13
2019-04-11T06:15:36.217Z,19.27
2019-04-11T06:16:08.280Z,15.37
2019-04-11T06:16:46.034Z,19.37
2019-04-11T06:17:15.925Z,24.73
2019-04-11T06:17:50.030Z,28.13
2019-04-11T06:18:44.900Z,24.03
2019-04-11T06:19:22.894Z,21.77
2019-04-11T06:19:57.617Z,21.70
2019-04-11T06:20:43.160Z,19.33
2019-04-11T06:21:26.236Z,20.93
2019-04-11T06:22:00.262Z,31.77
2019-04-11T06:22:31.893Z,27.47
2019-04-11T06:23:08.170Z,27.57
2019-04-11T06:23:45.671Z,24.87
2019-04-11T06:24:36.429Z,19.63
2019-04-11T06:25:23.357Z,26.20
2019-04-11T06:25:58.771Z,23.20
2019-04-11T06:26:35.033Z,16.13
2019-04-11T06:27:11.174Z,19.20
2019-04-11T06:27:47.431Z,12.83
2019-04-11T06:28:20.515Z,11.60
2019-04-11T06:28:55.485Z,10.30
2019-04-11T06:29:37.441Z,11.17
2019-04-11T06:30:13.267Z,12.53
2019-04-11T06:30:46.464Z,21.50
2019-04-11T06:31:33.837Z,13.73
2019-04-11T06:32:23.557Z,12.03
2019-04-11T06:33:02.630Z,17.63
2019-04-11T06:33:36.514Z,25.67
2019-04-11T06:34:09.167Z,31.10
2019-04-11T06:34:42.404Z,33.37
2019-04-11T06:35:19.922Z,31.37
2019-04-11T06:35:56.709Z,25.63
2019-04-11T06:36:48.253Z,28.57
2019-04-11T06:37:19.773Z,26.70
2019-04-11T06:38:02.804Z,24.47
2019-04-11T06:38:36.658Z,24.90
2019-04-11T06:39:09.789Z,27.97
2019-04-11T06:39:40.959Z,25.13
2019-04-11T06:40:20.154Z,25.40
2019-04-11T06:41:06.176Z,20.40
2019-04-11T06:41:43.030Z,17.10
2019-04-11T06:42:31.838Z,18.57
2019-04-11T06:43:07.856Z,15.90
2019-04-11T06:43:47.873Z,21.00
2019-04-11T06:44:21.671Z,16.57
2019-04-11T06:44:58.505Z,13.77
2019-04-11T06:45:40.452Z,11.83
2019-04-11T06:46:21.572Z,11.73
2019-04-11T06:47:00.515Z,13.73
2019-04-11T06:47:38.559Z,13.63
2019-04-11T06:48:29.547Z,13.20
2019-04-11T06:49:06.500Z,9.87
2019-04-11T06:49:56.353Z,12.47
2019-04-11T06:50:31.195Z,12.30
2019-04-11T06:51:04.483Z,16.30
2019-04-11T06:51:40.373Z,13.00
2019-04-11T06:52:13.209Z,13.57
2019-04-11T06:52:45.587Z,17.10
2019-04-11T06:53:18.900Z,17.97
2019-04-11T06:53:52.618Z,18.57
2019-04-11T06:54:23.873Z,16.13
2019-04-11T06:54:59.823Z,35.97
2019-04-11T06:55:36.972Z,19.67
2019-04-11T06:56:17.037Z,27.40
2019-04-11T06:56:50.883Z,21.53
2019-04-11T06:57:25.738Z,16.00
2019-04-11T06:58:07.711Z,15.03
2019-04-11T06:58:40.830Z,19.53
2019-04-11T06:59:14.376Z,19.97
2019-04-11T06:59:48.433Z,17.83
2019-04-11T07:00:21.047Z,15.70
2019-04-11T07:00:54.182Z,20.80
2019-04-11T07:01:28.013Z,18.97
2019-04-11T07:02:08.824Z,20.20
2019-04-11T07:02:36.898Z,16.77
2019-04-11T07:03:17.950Z,15.10
2019-04-11T07:03:53.271Z,14.03
2019-04-11T07:04:29.542Z,11.57
2019-04-11T07:05:02.780Z,13.70
2019-04-11T07:05:38.607Z,14.17
2019-04-11T07:06:13.284Z,12.93
2019-04-11T07:06:46.507Z,12.93
2019-04-11T07:07:18.547Z,21.93
2019-04-11T07:07:51.793Z,15.10
2019-04-11T07:08:25.099Z,17.73
2019-04-11T07:09:14.638Z,17.53
2019-04-11T07:09:50.375Z,17.27
2019-04-11T07:10:24.603Z,15.37
2019-04-11T07:10:58.848Z,14.80
2019-04-11T07:11:48.669Z,15.83
2019-04-11T07:12:24.533Z,16.77
2019-04-11T07:12:59.345Z,21.23
2019-04-11T07:13:35.573Z,20.60
2019-04-11T07:14:08.990Z,13.87
2019-04-11T07:14:48.066Z,16.40